sensor_id;sensor_type;location;lat;lon;timestamp;temperature;humidity
23283;DHT22;11810;51.178;3.878;2022-11-20T00:01:26;5.10;99.90
23283;DHT22;11810;51.178;3.878;2022-11-20T00:05:05;5.00;99.90
23283;DHT22;11810;51.178;3.878;2022-11-20T00:07:31;5.00;99.90
23283;DHT22;11810;51.178;3.878;2022-11-20T00:09:57;5.10;99.90
23283;DHT22;11810;51.178;3.878;2022-11-20T00:12:22;5.20;99.90
23283;DHT22;11810;51.178;3.878;2022-11-20T00:14:48;5.20;99.90
23283;DHT22;11810;51.178;3.878;2022-11-20T00:17:14;5.20;99.90
23283;DHT22;11810;51.178;3.878;2022-11-20T00:19:40;5.20;99.90
23283;DHT22;11810;51.178;3.878;2022-11-20T00:22:06;5.20;99.90
23283;DHT22;11810;51.178;3.878;2022-11-20T00:24:32;5.10;99.90
23283;DHT22;11810;51.178;3.878;2022-11-20T00:26:58;5.20;99.90
23283;DHT22;11810;51.178;3.878;2022-11-20T00:31:14;5.20;99.90
23283;DHT22;11810;51.178;3.878;2022-11-20T00:33:41;5.20;99.90
23283;DHT22;11810;51.178;3.878;2022-11-20T00:36:13;5.40;99.90
23283;DHT22;11810;51.178;3.878;2022-11-20T00:38:39;5.30;99.90
23283;DHT22;11810;51.178;3.878;2022-11-20T00:41:08;5.10;99.90
23283;DHT22;11810;51.178;3.878;2022-11-20T00:43:35;5.10;99.90
23283;DHT22;11810;51.178;3.878;2022-11-20T00:48:10;5.00;99.90
23283;DHT22;11810;51.178;3.878;2022-11-20T00:50:36;5.10;99.90
23283;DHT22;11810;51.178;3.878;2022-11-20T00:53:02;5.10;99.90
23283;DHT22;11810;51.178;3.878;2022-11-20T00:55:28;5.20;99.90
23283;DHT22;11810;51.178;3.878;2022-11-20T00:57:54;5.20;99.90
23283;DHT22;11810;51.178;3.878;2022-11-20T01:00:20;5.20;99.90
23283;DHT22;11810;51.178;3.878;2022-11-20T01:02:46;5.20;99.90
23283;DHT22;11810;51.178;3.878;2022-11-20T01:06:20;5.30;99.90
23283;DHT22;11810;51.178;3.878;2022-11-20T01:08:47;5.20;99.90
23283;DHT22;11810;51.178;3.878;2022-11-20T01:11:19;5.20;99.90
23283;DHT22;11810;51.178;3.878;2022-11-20T01:13:47;5.20;99.90
23283;DHT22;11810;51.178;3.878;2022-11-20T01:16:24;5.30;99.90
23283;DHT22;11810;51.178;3.878;2022-11-20T01:18:52;5.30;99.90
23283;DHT22;11810;51.178;3.878;2022-11-20T01:21:24;5.20;99.90
23283;DHT22;11810;51.178;3.878;2022-11-20T01:24:19;5.20;99.90
23283;DHT22;11810;51.178;3.878;2022-11-20T01:26:48;5.20;99.90
23283;DHT22;11810;51.178;3.878;2022-11-20T01:29:17;5.00;99.90
23283;DHT22;11810;51.178;3.878;2022-11-20T01:31:44;5.00;99.90
23283;DHT22;11810;51.178;3.878;2022-11-20T01:34:15;4.90;99.90
23283;DHT22;11810;51.178;3.878;2022-11-20T01:36:42;4.90;99.90
23283;DHT22;11810;51.178;3.878;2022-11-20T01:39:12;4.70;99.90
23283;DHT22;11810;51.178;3.878;2022-11-20T01:41:39;4.80;99.90
23283;DHT22;11810;51.178;3.878;2022-11-20T01:44:51;4.70;99.90
23283;DHT22;11810;51.178;3.878;2022-11-20T01:47:40;4.70;99.90
23283;DHT22;11810;51.178;3.878;2022-11-20T01:50:18;4.90;99.90
23283;DHT22;11810;51.178;3.878;2022-11-20T01:53:08;4.80;99.90
23283;DHT22;11810;51.178;3.878;2022-11-20T01:55:43;4.80;99.90
23283;DHT22;11810;51.178;3.878;2022-11-20T01:58:10;4.70;99.90
23283;DHT22;11810;51.178;3.878;2022-11-20T02:02:22;4.60;99.90
23283;DHT22;11810;51.178;3.878;2022-11-20T02:04:49;4.80;99.90
23283;DHT22;11810;51.178;3.878;2022-11-20T02:07:19;4.90;99.90
23283;DHT22;11810;51.178;3.878;2022-11-20T02:09:45;4.80;99.90
23283;DHT22;11810;51.178;3.878;2022-11-20T02:12:11;4.80;99.90
23283;DHT22;11810;51.178;3.878;2022-11-20T02:14:57;4.80;99.90
23283;DHT22;11810;51.178;3.878;2022-11-20T02:17:24;4.90;99.90
23283;DHT22;11810;51.178;3.878;2022-11-20T02:24:27;5.00;99.90
23283;DHT22;11810;51.178;3.878;2022-11-20T02:26:54;4.90;99.90
23283;DHT22;11810;51.178;3.878;2022-11-20T02:29:27;4.80;99.90
23283;DHT22;11810;51.178;3.878;2022-11-20T02:31:56;4.90;99.90
23283;DHT22;11810;51.178;3.878;2022-11-20T02:34:23;4.90;99.90
23283;DHT22;11810;51.178;3.878;2022-11-20T02:36:51;5.00;99.90
23283;DHT22;11810;51.178;3.878;2022-11-20T02:39:19;5.10;99.90
23283;DHT22;11810;51.178;3.878;2022-11-20T02:42:26;5.10;99.90
23283;DHT22;11810;51.178;3.878;2022-11-20T02:44:52;5.00;99.90
23283;DHT22;11810;51.178;3.878;2022-11-20T02:47:18;5.00;99.90
23283;DHT22;11810;51.178;3.878;2022-11-20T02:49:44;5.00;99.90
23283;DHT22;11810;51.178;3.878;2022-11-20T02:52:10;5.10;99.90
23283;DHT22;11810;51.178;3.878;2022-11-20T02:54:36;5.00;99.90
23283;DHT22;11810;51.178;3.878;2022-11-20T02:57:02;4.70;99.90
23283;DHT22;11810;51.178;3.878;2022-11-20T02:59:28;4.50;99.90
23283;DHT22;11810;51.178;3.878;2022-11-20T03:01:54;4.50;99.90
23283;DHT22;11810;51.178;3.878;2022-11-20T03:04:31;4.50;99.90
23283;DHT22;11810;51.178;3.878;2022-11-20T03:08:31;4.40;99.90
23283;DHT22;11810;51.178;3.878;2022-11-20T03:11:05;4.50;99.90
23283;DHT22;11810;51.178;3.878;2022-11-20T03:13:32;4.50;99.90
23283;DHT22;11810;51.178;3.878;2022-11-20T03:15:57;4.60;99.90
23283;DHT22;11810;51.178;3.878;2022-11-20T03:18:23;4.70;99.90
23283;DHT22;11810;51.178;3.878;2022-11-20T03:20:49;4.70;99.90
23283;DHT22;11810;51.178;3.878;2022-11-20T03:23:15;4.70;99.90
23283;DHT22;11810;51.178;3.878;2022-11-20T03:25:41;4.70;99.90
23283;DHT22;11810;51.178;3.878;2022-11-20T03:28:07;4.50;99.90
23283;DHT22;11810;51.178;3.878;2022-11-20T03:30:33;4.50;99.90
23283;DHT22;11810;51.178;3.878;2022-11-20T03:33:00;4.50;99.90
23283;DHT22;11810;51.178;3.878;2022-11-20T03:35:26;4.50;99.90
23283;DHT22;11810;51.178;3.878;2022-11-20T03:37:52;4.60;99.90
23283;DHT22;11810;51.178;3.878;2022-11-20T03:40:17;4.40;99.90
23283;DHT22;11810;51.178;3.878;2022-11-20T03:42:43;4.50;99.90
23283;DHT22;11810;51.178;3.878;2022-11-20T03:45:16;4.50;99.90
23283;DHT22;11810;51.178;3.878;2022-11-20T03:47:44;4.50;99.90
23283;DHT22;11810;51.178;3.878;2022-11-20T03:50:11;4.40;99.90
23283;DHT22;11810;51.178;3.878;2022-11-20T03:52:39;4.40;99.90
23283;DHT22;11810;51.178;3.878;2022-11-20T03:55:06;4.50;99.90
23283;DHT22;11810;51.178;3.878;2022-11-20T03:57:32;4.50;99.90
23283;DHT22;11810;51.178;3.878;2022-11-20T03:59:58;4.50;99.90
23283;DHT22;11810;51.178;3.878;2022-11-20T04:03:42;4.40;99.90
23283;DHT22;11810;51.178;3.878;2022-11-20T04:06:18;4.40;99.90
23283;DHT22;11810;51.178;3.878;2022-11-20T04:08:45;4.60;99.90
23283;DHT22;11810;51.178;3.878;2022-11-20T04:11:31;4.50;99.90
23283;DHT22;11810;51.178;3.878;2022-11-20T04:14:02;4.60;99.90
23283;DHT22;11810;51.178;3.878;2022-11-20T04:16:34;4.60;99.90
23283;DHT22;11810;51.178;3.878;2022-11-20T04:19:02;4.70;99.90
23283;DHT22;11810;51.178;3.878;2022-11-20T04:21:28;4.70;99.90
23283;DHT22;11810;51.178;3.878;2022-11-20T04:23:55;4.70;99.90
23283;DHT22;11810;51.178;3.878;2022-11-20T04:26:23;4.70;99.90
23283;DHT22;11810;51.178;3.878;2022-11-20T04:28:49;4.70;99.90
23283;DHT22;11810;51.178;3.878;2022-11-20T04:31:21;4.60;99.90
23283;DHT22;11810;51.178;3.878;2022-11-20T04:34:42;4.60;99.90
23283;DHT22;11810;51.178;3.878;2022-11-20T04:37:08;4.70;99.90
23283;DHT22;11810;51.178;3.878;2022-11-20T04:39:34;4.70;99.90
23283;DHT22;11810;51.178;3.878;2022-11-20T04:42:00;4.80;99.90
23283;DHT22;11810;51.178;3.878;2022-11-20T04:44:44;4.90;99.90
23283;DHT22;11810;51.178;3.878;2022-11-20T04:47:10;5.20;99.90
23283;DHT22;11810;51.178;3.878;2022-11-20T04:49:36;5.30;99.90
23283;DHT22;11810;51.178;3.878;2022-11-20T04:52:02;5.30;99.90
23283;DHT22;11810;51.178;3.878;2022-11-20T04:54:28;5.20;99.90
23283;DHT22;11810;51.178;3.878;2022-11-20T04:56:54;5.10;99.90
23283;DHT22;11810;51.178;3.878;2022-11-20T04:59:20;5.10;99.90
23283;DHT22;11810;51.178;3.878;2022-11-20T05:01:46;5.00;99.90
23283;DHT22;11810;51.178;3.878;2022-11-20T05:04:12;5.00;99.90
23283;DHT22;11810;51.178;3.878;2022-11-20T05:08:47;4.90;99.90
23283;DHT22;11810;51.178;3.878;2022-11-20T05:11:15;4.90;99.90
23283;DHT22;11810;51.178;3.878;2022-11-20T05:13:41;5.00;99.90
23283;DHT22;11810;51.178;3.878;2022-11-20T05:16:18;5.00;99.90
23283;DHT22;11810;51.178;3.878;2022-11-20T05:18:45;4.90;99.90
23283;DHT22;11810;51.178;3.878;2022-11-20T05:21:11;4.80;99.90
23283;DHT22;11810;51.178;3.878;2022-11-20T05:23:48;4.90;99.90
23283;DHT22;11810;51.178;3.878;2022-11-20T05:26:18;4.80;99.90
23283;DHT22;11810;51.178;3.878;2022-11-20T05:28:45;4.80;99.90
23283;DHT22;11810;51.178;3.878;2022-11-20T05:31:17;4.90;99.90
23283;DHT22;11810;51.178;3.878;2022-11-20T05:33:44;4.90;99.90
23283;DHT22;11810;51.178;3.878;2022-11-20T05:36:12;4.70;99.90
23283;DHT22;11810;51.178;3.878;2022-11-20T05:39:50;4.50;99.90
23283;DHT22;11810;51.178;3.878;2022-11-20T05:42:16;4.50;99.90
23283;DHT22;11810;51.178;3.878;2022-11-20T05:45:00;4.60;99.90
23283;DHT22;11810;51.178;3.878;2022-11-20T05:47:28;4.70;99.90
23283;DHT22;11810;51.178;3.878;2022-11-20T05:49:56;4.80;99.90
23283;DHT22;11810;51.178;3.878;2022-11-20T05:52:22;4.80;99.90
23283;DHT22;11810;51.178;3.878;2022-11-20T05:54:48;4.70;99.90
23283;DHT22;11810;51.178;3.878;2022-11-20T05:57:14;4.80;99.90
23283;DHT22;11810;51.178;3.878;2022-11-20T05:59:40;4.70;99.90
23283;DHT22;11810;51.178;3.878;2022-11-20T06:02:06;4.80;99.90
23283;DHT22;11810;51.178;3.878;2022-11-20T06:04:32;4.90;99.90
23283;DHT22;11810;51.178;3.878;2022-11-20T06:06:58;4.90;99.90
23283;DHT22;11810;51.178;3.878;2022-11-20T06:09:24;5.00;99.90
23283;DHT22;11810;51.178;3.878;2022-11-20T06:11:50;5.20;99.90
23283;DHT22;11810;51.178;3.878;2022-11-20T06:14:15;5.20;99.90
23283;DHT22;11810;51.178;3.878;2022-11-20T06:16:41;5.20;99.90
23283;DHT22;11810;51.178;3.878;2022-11-20T06:19:07;5.30;99.90
23283;DHT22;11810;51.178;3.878;2022-11-20T06:21:33;5.20;99.90
23283;DHT22;11810;51.178;3.878;2022-11-20T06:23:59;5.20;99.90
23283;DHT22;11810;51.178;3.878;2022-11-20T06:26:26;5.10;99.90
23283;DHT22;11810;51.178;3.878;2022-11-20T06:28:53;5.10;99.90
23283;DHT22;11810;51.178;3.878;2022-11-20T06:31:23;5.10;99.90
23283;DHT22;11810;51.178;3.878;2022-11-20T06:33:50;5.20;99.90
23283;DHT22;11810;51.178;3.878;2022-11-20T06:36:17;5.20;99.90
23283;DHT22;11810;51.178;3.878;2022-11-20T06:38:44;5.30;99.90
23283;DHT22;11810;51.178;3.878;2022-11-20T06:41:16;5.50;99.90
23283;DHT22;11810;51.178;3.878;2022-11-20T06:43:42;5.60;99.90
23283;DHT22;11810;51.178;3.878;2022-11-20T06:46:10;5.60;99.90
23283;DHT22;11810;51.178;3.878;2022-11-20T06:48:36;5.50;99.90
23283;DHT22;11810;51.178;3.878;2022-11-20T06:53:03;5.50;99.90
23283;DHT22;11810;51.178;3.878;2022-11-20T06:55:30;5.50;99.90
23283;DHT22;11810;51.178;3.878;2022-11-20T07:00:00;5.70;99.90
23283;DHT22;11810;51.178;3.878;2022-11-20T07:02:27;5.60;99.90
23283;DHT22;11810;51.178;3.878;2022-11-20T07:04:53;5.70;99.90
23283;DHT22;11810;51.178;3.878;2022-11-20T07:07:19;5.50;99.90
23283;DHT22;11810;51.178;3.878;2022-11-20T07:09:45;5.70;99.90
23283;DHT22;11810;51.178;3.878;2022-11-20T07:12:10;5.60;99.90
23283;DHT22;11810;51.178;3.878;2022-11-20T07:14:36;5.60;99.90
23283;DHT22;11810;51.178;3.878;2022-11-20T07:17:02;5.70;99.90
23283;DHT22;11810;51.178;3.878;2022-11-20T07:19:28;5.80;99.90
23283;DHT22;11810;51.178;3.878;2022-11-20T07:21:54;5.80;99.90
23283;DHT22;11810;51.178;3.878;2022-11-20T07:24:20;5.90;99.90
23283;DHT22;11810;51.178;3.878;2022-11-20T07:26:46;5.80;99.90
23283;DHT22;11810;51.178;3.878;2022-11-20T07:29:15;5.90;99.90
23283;DHT22;11810;51.178;3.878;2022-11-20T07:31:42;6.00;99.90
23283;DHT22;11810;51.178;3.878;2022-11-20T07:34:08;6.00;99.90
23283;DHT22;11810;51.178;3.878;2022-11-20T07:36:34;6.00;99.90
23283;DHT22;11810;51.178;3.878;2022-11-20T07:39:00;6.10;99.90
23283;DHT22;11810;51.178;3.878;2022-11-20T07:41:26;6.10;99.90
23283;DHT22;11810;51.178;3.878;2022-11-20T07:43:53;6.00;99.90
23283;DHT22;11810;51.178;3.878;2022-11-20T07:46:19;6.20;99.90
23283;DHT22;11810;51.178;3.878;2022-11-20T07:48:45;6.10;99.90
23283;DHT22;11810;51.178;3.878;2022-11-20T07:52:16;6.10;99.90
23283;DHT22;11810;51.178;3.878;2022-11-20T07:54:42;6.20;99.90
23283;DHT22;11810;51.178;3.878;2022-11-20T07:57:07;6.30;99.90
23283;DHT22;11810;51.178;3.878;2022-11-20T07:59:33;6.30;99.90
23283;DHT22;11810;51.178;3.878;2022-11-20T08:01:59;6.40;99.90
23283;DHT22;11810;51.178;3.878;2022-11-20T08:04:25;6.50;99.90
23283;DHT22;11810;51.178;3.878;2022-11-20T08:06:54;6.40;99.90
23283;DHT22;11810;51.178;3.878;2022-11-20T08:10:14;6.30;99.90
23283;DHT22;11810;51.178;3.878;2022-11-20T08:12:51;6.30;99.90
23283;DHT22;11810;51.178;3.878;2022-11-20T08:15:38;6.40;99.90
23283;DHT22;11810;51.178;3.878;2022-11-20T08:18:11;6.30;99.90
23283;DHT22;11810;51.178;3.878;2022-11-20T08:20:38;6.40;99.90
23283;DHT22;11810;51.178;3.878;2022-11-20T08:23:06;6.30;99.90
23283;DHT22;11810;51.178;3.878;2022-11-20T08:25:34;6.40;99.90
23283;DHT22;11810;51.178;3.878;2022-11-20T08:28:02;6.40;99.90
23283;DHT22;11810;51.178;3.878;2022-11-20T08:30:28;6.50;99.90
23283;DHT22;11810;51.178;3.878;2022-11-20T08:32:54;6.50;99.90
23283;DHT22;11810;51.178;3.878;2022-11-20T08:35:21;6.70;99.90
23283;DHT22;11810;51.178;3.878;2022-11-20T08:37:47;6.60;99.90
23283;DHT22;11810;51.178;3.878;2022-11-20T08:40:14;6.70;99.90
23283;DHT22;11810;51.178;3.878;2022-11-20T08:42:50;6.70;99.90
23283;DHT22;11810;51.178;3.878;2022-11-20T08:45:17;6.70;99.90
23283;DHT22;11810;51.178;3.878;2022-11-20T08:47:44;6.70;99.90
23283;DHT22;11810;51.178;3.878;2022-11-20T08:50:12;6.70;99.90
23283;DHT22;11810;51.178;3.878;2022-11-20T08:52:38;6.70;99.90
23283;DHT22;11810;51.178;3.878;2022-11-20T08:55:05;6.70;99.90
23283;DHT22;11810;51.178;3.878;2022-11-20T08:57:33;6.70;99.90
23283;DHT22;11810;51.178;3.878;2022-11-20T08:59:59;6.80;99.90
23283;DHT22;11810;51.178;3.878;2022-11-20T09:02:25;6.80;99.90
23283;DHT22;11810;51.178;3.878;2022-11-20T09:04:51;6.70;99.90
23283;DHT22;11810;51.178;3.878;2022-11-20T09:07:17;6.80;99.90
23283;DHT22;11810;51.178;3.878;2022-11-20T09:09:43;6.90;99.90
23283;DHT22;11810;51.178;3.878;2022-11-20T09:12:09;6.90;99.90
23283;DHT22;11810;51.178;3.878;2022-11-20T09:14:34;6.90;99.90
23283;DHT22;11810;51.178;3.878;2022-11-20T09:17:00;7.00;99.90
23283;DHT22;11810;51.178;3.878;2022-11-20T09:19:26;7.00;99.90
23283;DHT22;11810;51.178;3.878;2022-11-20T09:21:52;7.00;99.90
23283;DHT22;11810;51.178;3.878;2022-11-20T09:24:19;7.00;99.90
23283;DHT22;11810;51.178;3.878;2022-11-20T09:26:46;6.90;99.90
23283;DHT22;11810;51.178;3.878;2022-11-20T09:29:12;7.00;99.90
23283;DHT22;11810;51.178;3.878;2022-11-20T09:31:38;7.20;99.90
23283;DHT22;11810;51.178;3.878;2022-11-20T09:34:04;7.10;99.90
23283;DHT22;11810;51.178;3.878;2022-11-20T09:36:30;7.10;99.90
23283;DHT22;11810;51.178;3.878;2022-11-20T09:38:56;7.30;99.90
23283;DHT22;11810;51.178;3.878;2022-11-20T09:47:20;7.30;99.90
23283;DHT22;11810;51.178;3.878;2022-11-20T09:55:19;7.50;99.90
23283;DHT22;11810;51.178;3.878;2022-11-20T09:57:48;7.50;99.90
23283;DHT22;11810;51.178;3.878;2022-11-20T10:00:16;7.80;99.90
23283;DHT22;11810;51.178;3.878;2022-11-20T10:05:25;7.90;99.90
23283;DHT22;11810;51.178;3.878;2022-11-20T10:08:14;7.90;99.90
23283;DHT22;11810;51.178;3.878;2022-11-20T10:11:06;7.90;99.90
23283;DHT22;11810;51.178;3.878;2022-11-20T10:16:40;8.00;99.90
23283;DHT22;11810;51.178;3.878;2022-11-20T10:30:13;8.20;99.90
23283;DHT22;11810;51.178;3.878;2022-11-20T10:32:42;8.40;99.90
23283;DHT22;11810;51.178;3.878;2022-11-20T10:37:57;8.40;99.90
23283;DHT22;11810;51.178;3.878;2022-11-20T10:40:27;8.60;99.90
23283;DHT22;11810;51.178;3.878;2022-11-20T10:42:57;8.70;99.90
23283;DHT22;11810;51.178;3.878;2022-11-20T10:47:54;8.80;99.90
23283;DHT22;11810;51.178;3.878;2022-11-20T10:50:21;8.90;99.90
23283;DHT22;11810;51.178;3.878;2022-11-20T10:55:47;9.00;99.90
23283;DHT22;11810;51.178;3.878;2022-11-20T11:01:20;9.20;99.90
23283;DHT22;11810;51.178;3.878;2022-11-20T11:03:52;9.20;99.90
23283;DHT22;11810;51.178;3.878;2022-11-20T11:06:25;9.30;99.90
23283;DHT22;11810;51.178;3.878;2022-11-20T11:08:56;9.40;99.90
23283;DHT22;11810;51.178;3.878;2022-11-20T11:11:32;9.30;99.90
23283;DHT22;11810;51.178;3.878;2022-11-20T11:14:08;9.50;99.90
23283;DHT22;11810;51.178;3.878;2022-11-20T11:16:34;9.70;99.90
23283;DHT22;11810;51.178;3.878;2022-11-20T11:19:13;9.80;99.90
23283;DHT22;11810;51.178;3.878;2022-11-20T11:21:49;9.90;99.90
23283;DHT22;11810;51.178;3.878;2022-11-20T11:24:29;9.90;99.90
23283;DHT22;11810;51.178;3.878;2022-11-20T11:27:01;10.00;99.90
23283;DHT22;11810;51.178;3.878;2022-11-20T11:29:32;10.00;99.90
23283;DHT22;11810;51.178;3.878;2022-11-20T11:32:13;10.20;99.90
23283;DHT22;11810;51.178;3.878;2022-11-20T11:34:39;10.20;99.90
23283;DHT22;11810;51.178;3.878;2022-11-20T11:37:12;10.30;99.90
23283;DHT22;11810;51.178;3.878;2022-11-20T11:39:42;10.40;99.90
23283;DHT22;11810;51.178;3.878;2022-11-20T11:42:15;10.40;99.90
23283;DHT22;11810;51.178;3.878;2022-11-20T11:44:47;10.50;99.90
23283;DHT22;11810;51.178;3.878;2022-11-20T11:50:18;10.20;99.90
23283;DHT22;11810;51.178;3.878;2022-11-20T11:53:09;10.10;99.90
23283;DHT22;11810;51.178;3.878;2022-11-20T11:55:39;10.00;99.90
23283;DHT22;11810;51.178;3.878;2022-11-20T11:58:44;10.10;99.90
23283;DHT22;11810;51.178;3.878;2022-11-20T12:01:45;10.00;99.90
23283;DHT22;11810;51.178;3.878;2022-11-20T12:04:44;10.00;99.90
23283;DHT22;11810;51.178;3.878;2022-11-20T12:10:17;9.80;99.90
23283;DHT22;11810;51.178;3.878;2022-11-20T12:12:51;9.60;99.90
23283;DHT22;11810;51.178;3.878;2022-11-20T12:15:36;9.40;99.90
23283;DHT22;11810;51.178;3.878;2022-11-20T12:18:09;9.30;99.90
23283;DHT22;11810;51.178;3.878;2022-11-20T12:21:08;9.10;99.90
23283;DHT22;11810;51.178;3.878;2022-11-20T12:26:13;9.20;99.90
23283;DHT22;11810;51.178;3.878;2022-11-20T12:29:29;9.30;99.90
23283;DHT22;11810;51.178;3.878;2022-11-20T12:35:00;9.30;99.90
23283;DHT22;11810;51.178;3.878;2022-11-20T12:46:35;9.30;99.90
23283;DHT22;11810;51.178;3.878;2022-11-20T12:57:23;9.00;99.90
23283;DHT22;11810;51.178;3.878;2022-11-20T13:00:14;9.00;99.90
23283;DHT22;11810;51.178;3.878;2022-11-20T13:03:06;9.20;99.90
23283;DHT22;11810;51.178;3.878;2022-11-20T13:08:18;9.20;99.90
23283;DHT22;11810;51.178;3.878;2022-11-20T13:19:15;9.20;99.90
23283;DHT22;11810;51.178;3.878;2022-11-20T13:21:43;9.30;99.90
23283;DHT22;11810;51.178;3.878;2022-11-20T13:29:42;9.30;99.90
23283;DHT22;11810;51.178;3.878;2022-11-20T13:32:20;9.20;99.90
23283;DHT22;11810;51.178;3.878;2022-11-20T13:34:56;9.30;99.90
23283;DHT22;11810;51.178;3.878;2022-11-20T13:37:40;9.10;99.90
23283;DHT22;11810;51.178;3.878;2022-11-20T13:42:56;9.20;99.90
23283;DHT22;11810;51.178;3.878;2022-11-20T13:45:23;9.20;99.90
23283;DHT22;11810;51.178;3.878;2022-11-20T13:47:52;9.20;99.90
23283;DHT22;11810;51.178;3.878;2022-11-20T13:50:18;9.10;99.90
23283;DHT22;11810;51.178;3.878;2022-11-20T13:53:07;9.10;99.90
23283;DHT22;11810;51.178;3.878;2022-11-20T13:55:54;9.10;99.90
23283;DHT22;11810;51.178;3.878;2022-11-20T14:01:07;9.20;99.90
23283;DHT22;11810;51.178;3.878;2022-11-20T14:03:35;9.20;99.90
23283;DHT22;11810;51.178;3.878;2022-11-20T14:06:03;9.10;99.90
23283;DHT22;11810;51.178;3.878;2022-11-20T14:11:25;9.10;99.90
23283;DHT22;11810;51.178;3.878;2022-11-20T14:13:52;9.00;99.90
23283;DHT22;11810;51.178;3.878;2022-11-20T14:17:17;8.90;99.90
23283;DHT22;11810;51.178;3.878;2022-11-20T14:19:44;9.00;99.90
23283;DHT22;11810;51.178;3.878;2022-11-20T14:24:40;9.00;99.90
23283;DHT22;11810;51.178;3.878;2022-11-20T14:27:16;9.00;99.90
23283;DHT22;11810;51.178;3.878;2022-11-20T14:29:45;9.10;99.90
23283;DHT22;11810;51.178;3.878;2022-11-20T14:32:18;9.10;99.90
23283;DHT22;11810;51.178;3.878;2022-11-20T14:34:46;9.10;99.90
23283;DHT22;11810;51.178;3.878;2022-11-20T14:37:19;9.00;99.90
23283;DHT22;11810;51.178;3.878;2022-11-20T14:39:51;8.90;99.90
23283;DHT22;11810;51.178;3.878;2022-11-20T14:42:23;8.90;99.90
23283;DHT22;11810;51.178;3.878;2022-11-20T14:44:50;9.10;99.90
23283;DHT22;11810;51.178;3.878;2022-11-20T14:47:22;9.10;99.90
23283;DHT22;11810;51.178;3.878;2022-11-20T14:49:50;9.30;99.90
23283;DHT22;11810;51.178;3.878;2022-11-20T14:52:22;9.30;99.90
23283;DHT22;11810;51.178;3.878;2022-11-20T14:54:50;9.30;99.90
23283;DHT22;11810;51.178;3.878;2022-11-20T14:57:34;9.30;99.90
23283;DHT22;11810;51.178;3.878;2022-11-20T15:02:48;9.50;99.90
23283;DHT22;11810;51.178;3.878;2022-11-20T15:05:16;9.40;99.90
23283;DHT22;11810;51.178;3.878;2022-11-20T15:07:45;9.50;99.90
23283;DHT22;11810;51.178;3.878;2022-11-20T15:13:01;9.40;99.90
23283;DHT22;11810;51.178;3.878;2022-11-20T15:15:33;9.30;99.90
23283;DHT22;11810;51.178;3.878;2022-11-20T15:18:01;9.30;99.90
23283;DHT22;11810;51.178;3.878;2022-11-20T15:20:31;9.30;99.90
23283;DHT22;11810;51.178;3.878;2022-11-20T15:22:57;9.30;99.90
23283;DHT22;11810;51.178;3.878;2022-11-20T15:25:23;9.30;99.90
23283;DHT22;11810;51.178;3.878;2022-11-20T15:27:54;9.20;99.90
23283;DHT22;11810;51.178;3.878;2022-11-20T15:30:22;9.20;99.90
23283;DHT22;11810;51.178;3.878;2022-11-20T15:32:48;9.10;99.90
23283;DHT22;11810;51.178;3.878;2022-11-20T15:35:15;9.10;99.90
23283;DHT22;11810;51.178;3.878;2022-11-20T15:37:41;9.10;99.90
23283;DHT22;11810;51.178;3.878;2022-11-20T15:40:08;9.10;99.90
23283;DHT22;11810;51.178;3.878;2022-11-20T15:42:35;9.10;99.90
23283;DHT22;11810;51.178;3.878;2022-11-20T15:45:01;9.10;99.90
23283;DHT22;11810;51.178;3.878;2022-11-20T15:47:30;9.00;99.90
23283;DHT22;11810;51.178;3.878;2022-11-20T15:49:56;8.90;99.90
23283;DHT22;11810;51.178;3.878;2022-11-20T15:52:22;8.90;99.90
23283;DHT22;11810;51.178;3.878;2022-11-20T15:54:48;8.90;99.90
23283;DHT22;11810;51.178;3.878;2022-11-20T15:57:14;8.90;99.90
23283;DHT22;11810;51.178;3.878;2022-11-20T15:59:40;9.00;99.90
23283;DHT22;11810;51.178;3.878;2022-11-20T16:02:15;8.90;99.90
23283;DHT22;11810;51.178;3.878;2022-11-20T16:04:41;8.90;99.90
23283;DHT22;11810;51.178;3.878;2022-11-20T16:07:07;8.80;99.90
23283;DHT22;11810;51.178;3.878;2022-11-20T16:09:33;8.80;99.90
23283;DHT22;11810;51.178;3.878;2022-11-20T16:11:59;8.90;99.90
23283;DHT22;11810;51.178;3.878;2022-11-20T16:14:26;8.90;99.90
23283;DHT22;11810;51.178;3.878;2022-11-20T16:17:11;8.90;99.90
23283;DHT22;11810;51.178;3.878;2022-11-20T16:19:37;8.90;99.90
23283;DHT22;11810;51.178;3.878;2022-11-20T16:22:04;8.80;99.90
23283;DHT22;11810;51.178;3.878;2022-11-20T16:24:30;8.80;99.90
23283;DHT22;11810;51.178;3.878;2022-11-20T16:26:56;8.80;99.90
23283;DHT22;11810;51.178;3.878;2022-11-20T16:29:22;8.70;99.90
23283;DHT22;11810;51.178;3.878;2022-11-20T16:31:48;8.70;99.90
23283;DHT22;11810;51.178;3.878;2022-11-20T16:36:25;8.60;99.90
23283;DHT22;11810;51.178;3.878;2022-11-20T16:38:53;8.60;99.90
23283;DHT22;11810;51.178;3.878;2022-11-20T16:41:19;8.80;99.90
23283;DHT22;11810;51.178;3.878;2022-11-20T16:43:50;9.00;99.90
23283;DHT22;11810;51.178;3.878;2022-11-20T16:46:18;8.90;99.90
23283;DHT22;11810;51.178;3.878;2022-11-20T16:48:46;8.90;99.90
23283;DHT22;11810;51.178;3.878;2022-11-20T16:51:17;8.90;99.90
23283;DHT22;11810;51.178;3.878;2022-11-20T16:53:43;9.00;99.90
23283;DHT22;11810;51.178;3.878;2022-11-20T16:56:14;8.90;99.90
23283;DHT22;11810;51.178;3.878;2022-11-20T16:58:47;8.80;99.90
23283;DHT22;11810;51.178;3.878;2022-11-20T17:01:18;8.80;99.90
23283;DHT22;11810;51.178;3.878;2022-11-20T17:03:47;8.60;99.90
23283;DHT22;11810;51.178;3.878;2022-11-20T17:06:19;8.40;99.90
23283;DHT22;11810;51.178;3.878;2022-11-20T17:08:47;8.50;99.90
23283;DHT22;11810;51.178;3.878;2022-11-20T17:11:15;8.50;99.90
23283;DHT22;11810;51.178;3.878;2022-11-20T17:13:41;8.50;99.90
23283;DHT22;11810;51.178;3.878;2022-11-20T17:16:10;8.50;99.90
23283;DHT22;11810;51.178;3.878;2022-11-20T17:18:36;8.40;99.90
23283;DHT22;11810;51.178;3.878;2022-11-20T17:21:03;8.40;99.90
23283;DHT22;11810;51.178;3.878;2022-11-20T17:23:33;8.40;99.90
23283;DHT22;11810;51.178;3.878;2022-11-20T17:26:10;8.40;99.90
23283;DHT22;11810;51.178;3.878;2022-11-20T17:28:39;8.30;99.90
23283;DHT22;11810;51.178;3.878;2022-11-20T17:31:13;8.30;99.90
23283;DHT22;11810;51.178;3.878;2022-11-20T17:33:41;8.30;99.90
23283;DHT22;11810;51.178;3.878;2022-11-20T17:36:09;8.20;99.90
23283;DHT22;11810;51.178;3.878;2022-11-20T17:38:36;8.20;99.90
23283;DHT22;11810;51.178;3.878;2022-11-20T17:41:07;8.20;99.90
23283;DHT22;11810;51.178;3.878;2022-11-20T17:43:33;8.30;99.90
23283;DHT22;11810;51.178;3.878;2022-11-20T17:46:13;8.20;99.90
23283;DHT22;11810;51.178;3.878;2022-11-20T17:48:40;8.20;99.90
23283;DHT22;11810;51.178;3.878;2022-11-20T17:51:15;8.10;99.90
23283;DHT22;11810;51.178;3.878;2022-11-20T17:53:42;8.10;99.90
23283;DHT22;11810;51.178;3.878;2022-11-20T17:56:09;8.20;99.90
23283;DHT22;11810;51.178;3.878;2022-11-20T17:58:54;8.10;99.90
23283;DHT22;11810;51.178;3.878;2022-11-20T18:01:20;8.20;99.90
23283;DHT22;11810;51.178;3.878;2022-11-20T18:03:46;8.10;99.90
23283;DHT22;11810;51.178;3.878;2022-11-20T18:06:18;8.20;99.90
23283;DHT22;11810;51.178;3.878;2022-11-20T18:08:45;8.10;99.90
23283;DHT22;11810;51.178;3.878;2022-11-20T18:11:24;8.10;99.90